Time;durP1;ratioP1;P1;durP2;ratioP2;P2;SDS_P1;SDS_P2;PMS_P1;PMS_P2;Temp;Humidity;BMP_temperature;BMP_pressure;BME280_temperature;BME280_humidity;BME280_pressure;Samples;Min_cycle;Max_cycle;Signal;HPM_P1;HPM_P2
2022/06/11 00:02:04;;;;;;;80.90;73.90;;;;;;;16.18;100.00;102025.27;2005800;71;31461;-74
2022/06/11 00:07:58;;;;;;;84.17;77.63;;;;;;;16.02;100.00;102030.75;1959223;72;31156;-74
2022/06/11 00:13:43;;;;;;;81.67;75.40;;;;;;;15.92;100.00;102034.45;2004385;71;32828;-74
2022/06/11 00:19:28;;;;;;;80.33;73.63;;;;;;;15.85;100.00;102040.97;1995185;71;33406;-75
2022/06/11 00:25:13;;;;;;;73.80;67.33;;;;;;;15.95;100.00;102037.27;2010998;71;32943;-74
2022/06/11 00:30:58;;;;;;;74.43;68.33;;;;;;;15.92;100.00;102027.45;2016706;71;32916;-74
2022/06/11 00:36:47;;;;;;;74.97;68.97;;;;;;;15.94;100.00;102029.98;2006226;71;32959;-74
2022/06/11 00:42:35;;;;;;;76.60;70.30;;;;;;;15.84;100.00;102035.65;2007816;71;32884;-73
2022/06/11 00:48:44;;;;;;;79.60;73.13;;;;;;;15.68;100.00;102037.73;2070044;69;31505;-73
2022/06/11 00:54:32;;;;;;;77.13;70.93;;;;;;;15.57;100.00;102042.30;2013077;71;32960;-74
2022/06/11 01:00:20;;;;;;;75.83;70.20;;;;;;;15.64;100.00;102048.41;2007638;71;33366;-74
2022/06/11 01:06:08;;;;;;;83.83;76.77;;;;;;;15.35;100.00;102049.12;2002504;71;33439;-74
2022/06/11 01:12:07;;;;;;;80.47;73.93;;;;;;;15.40;100.00;102042.66;2014842;71;32897;-74
2022/06/11 01:14:44;;;;;;;82.93;76.23;;;;;;;15.34;100.00;102053.59;1977084;72;26327;-73
2022/06/11 01:17:21;;;;;;;77.80;71.60;;;;;;;15.38;100.00;102054.69;1958907;72;26298;-73
2022/06/11 01:24:03;;;;;;;81.03;74.57;;;;;;;15.23;100.00;102053.38;2018328;71;30932;-74
2022/06/11 01:27:09;;;;;;;81.63;74.83;;;;;;;15.29;100.00;102063.41;1983939;72;26218;-74
2022/06/11 01:33:09;;;;;;;83.83;76.97;;;;;;;15.39;100.00;102055.81;2013242;71;32796;-74
2022/06/11 01:35:47;;;;;;;83.50;76.33;;;;;;;15.34;100.00;102062.83;1976266;72;26691;-74
2022/06/11 01:38:21;;;;;;;81.90;75.00;;;;;;;15.28;100.00;102066.77;1985500;72;26313;-74
2022/06/11 01:44:11;;;;;;;86.03;79.20;;;;;;;15.22;100.00;102064.30;2009185;71;32820;-74
2022/06/11 01:49:56;;;;;;;84.90;78.37;;;;;;;15.26;100.00;102068.19;2016743;71;33361;-74
2022/06/11 01:55:59;;;;;;;87.43;80.50;;;;;;;15.12;100.00;102072.72;2011494;71;32817;-74
2022/06/11 01:58:39;;;;;;;85.70;78.93;;;;;;;15.13;100.00;102080.84;1958353;72;26210;-74
2022/06/11 02:01:18;;;;;;;86.93;79.80;;;;;;;15.15;100.00;102074.38;1983171;72;26326;-73
2022/06/11 02:07:08;;;;;;;86.50;79.20;;;;;;;15.00;100.00;102079.49;2014525;71;32935;-74
2022/06/11 02:09:53;;;;;;;88.93;81.70;;;;;;;14.97;100.00;102087.63;1986802;72;26214;-74
2022/06/11 02:15:42;;;;;;;85.77;78.63;;;;;;;14.88;100.00;102079.53;2002313;71;32810;-74
2022/06/11 02:18:16;;;;;;;89.73;82.50;;;;;;;14.81;100.00;102088.77;1967822;72;26279;-74
2022/06/11 02:20:49;;;;;;;91.57;84.27;;;;;;;14.91;100.00;102088.19;1983808;72;26233;-74
2022/06/11 02:23:22;;;;;;;84.73;77.93;;;;;;;14.98;100.00;102093.47;1974914;72;26711;-74
2022/06/11 02:29:11;;;;;;;91.23;83.50;;;;;;;14.86;100.00;102091.55;2012741;71;32946;-74
2022/06/11 02:35:00;;;;;;;91.90;84.33;;;;;;;14.74;100.00;102091.03;1909035;70;33638;-74
2022/06/11 02:40:49;;;;;;;87.27;79.50;;;;;;;14.69;100.00;102089.64;2007704;71;32804;-74
2022/06/11 02:46:43;;;;;;;89.77;82.87;;;;;;;14.65;100.00;102090.77;1991299;71;33294;-74
2022/06/11 02:52:31;;;;;;;87.80;80.87;;;;;;;14.61;100.00;102104.20;2009202;71;33193;-74
2022/06/11 02:58:16;;;;;;;86.47;79.47;;;;;;;14.56;100.00;102107.28;2004331;71;33258;-74
2022/06/11 03:04:02;;;;;;;89.33;81.47;;;;;;;14.54;100.00;102123.52;2000185;71;33422;-74
2022/06/11 03:09:48;;;;;;;87.87;80.37;;;;;;;14.39;100.00;102117.92;2012924;71;32919;-74
2022/06/11 03:15:32;;;;;;;94.80;87.30;;;;;;;14.42;100.00;102115.95;2000665;71;33393;-74
2022/06/11 03:21:17;;;;;;;93.83;86.10;;;;;;;14.36;100.00;102120.44;2016670;71;33293;-74
2022/06/11 03:27:03;;;;;;;90.93;83.83;;;;;;;14.35;100.00;102124.31;2014927;71;32854;-74
2022/06/11 03:32:47;;;;;;;89.30;82.17;;;;;;;14.23;100.00;102127.95;2000469;71;32910;-70
2022/06/11 03:38:32;;;;;;;76.83;70.83;;;;;;;14.43;100.00;102128.81;2011068;71;33351;-70
2022/06/11 03:44:18;;;;;;;74.73;68.67;;;;;;;14.40;100.00;102128.55;1998322;71;32934;-70
2022/06/11 03:50:03;;;;;;;71.17;65.43;;;;;;;14.16;100.00;102135.22;2005776;71;33303;-70
2022/06/11 03:55:48;;;;;;;74.30;67.77;;;;;;;14.08;100.00;102146.92;2015054;71;33338;-70
2022/06/11 04:01:33;;;;;;;70.43;64.30;;;;;;;14.12;100.00;102153.62;1952495;71;39753;-70
2022/06/11 04:07:18;;;;;;;75.37;68.87;;;;;;;14.17;100.00;102156.99;1996828;71;32931;-70
2022/06/11 04:13:02;;;;;;;71.77;65.03;;;;;;;14.27;100.00;102164.00;2013439;71;32852;-70
2022/06/11 04:18:48;;;;;;;74.53;68.47;;;;;;;14.05;100.00;102179.06;1996797;71;32779;-71
2022/06/11 04:24:33;;;;;;;79.80;72.93;;;;;;;14.09;100.00;102183.53;2018279;71;32896;-70
2022/06/11 04:30:19;;;;;;;74.20;67.87;;;;;;;14.08;100.00;102186.88;1998377;71;32900;-70
2022/06/11 04:36:06;;;;;;;72.67;65.87;;;;;;;13.98;100.00;102205.59;1996733;71;32769;-70
2022/06/11 04:41:51;;;;;;;73.47;66.97;;;;;;;14.13;100.00;102213.45;2011054;71;33002;-70
2022/06/11 04:47:36;;;;;;;75.10;68.47;;;;;;;14.14;100.00;102205.91;2012717;71;32844;-70
2022/06/11 04:53:22;;;;;;;70.57;64.57;;;;;;;14.07;100.00;102206.19;1996872;71;32771;-70
2022/06/11 04:59:06;;;;;;;73.73;67.80;;;;;;;14.21;100.00;102207.86;2013511;71;33317;-70
2022/06/11 05:04:52;;;;;;;74.60;68.17;;;;;;;14.19;100.00;102205.08;2009355;71;32954;-70
2022/06/11 05:10:37;;;;;;;71.70;65.30;;;;;;;14.30;100.00;102209.56;1938308;70;33557;-69
2022/06/11 05:16:23;;;;;;;76.33;69.63;;;;;;;14.31;100.00;102204.26;2012941;71;32901;-70
2022/06/11 05:22:08;;;;;;;76.40;69.97;;;;;;;14.36;100.00;102199.55;2002484;71;32819;-71
2022/06/11 05:27:53;;;;;;;74.07;67.90;;;;;;;14.60;100.00;102202.63;2011180;71;33460;-70
2022/06/11 05:33:39;;;;;;;74.47;68.43;;;;;;;14.66;100.00;102204.88;2000645;71;32844;-69
2022/06/11 05:39:25;;;;;;;77.17;71.20;;;;;;;14.83;100.00;102207.67;2012886;71;32900;-69
2022/06/11 05:45:11;;;;;;;74.83;69.07;;;;;;;14.91;100.00;102208.50;2005362;71;32973;-69
2022/06/11 05:50:58;;;;;;;72.80;67.03;;;;;;;14.94;100.00;102204.30;2009869;71;32824;-69
2022/06/11 05:56:44;;;;;;;75.60;69.40;;;;;;;15.00;100.00;102203.18;2011256;71;32825;-69
2022/06/11 06:02:30;;;;;;;82.37;76.27;;;;;;;15.08;100.00;102204.00;2000153;71;32886;-69
2022/06/11 06:08:15;;;;;;;78.83;73.00;;;;;;;15.18;100.00;102201.19;2011597;71;33388;-68
2022/06/11 06:14:00;;;;;;;80.07;74.13;;;;;;;15.26;100.00;102198.38;2004322;71;32944;-70
2022/06/11 06:19:45;;;;;;;82.27;76.07;;;;;;;15.39;100.00;102192.17;1991379;71;32761;-67
2022/06/11 06:25:32;;;;;;;77.03;71.33;;;;;;;15.46;100.00;102201.09;1994734;71;32969;-68
2022/06/11 06:31:18;;;;;;;75.03;69.53;;;;;;;15.64;100.00;102210.31;2016628;71;33546;-70
2022/06/11 06:37:02;;;;;;;74.20;68.37;;;;;;;15.75;100.00;102215.30;2011195;71;32838;-70
2022/06/11 06:42:50;;;;;;;71.13;65.87;;;;;;;15.91;100.00;102205.72;2016708;71;32893;-74
2022/06/11 06:48:35;;;;;;;73.83;68.13;;;;;;;16.07;100.00;102212.91;2011277;71;33192;-71
2022/06/11 06:54:19;;;;;;;71.37;66.10;;;;;;;16.15;100.00;102214.27;2011661;71;32772;-69
2022/06/11 07:00:05;;;;;;;69.70;64.43;;;;;;;16.25;100.00;102204.39;2011313;70;32848;-67
2022/06/11 07:05:50;;;;;;;68.30;63.33;;;;;;;16.37;100.00;102218.33;2002414;71;32832;-69
2022/06/11 07:11:36;;;;;;;65.30;60.23;;;;;;;16.53;100.00;102212.59;2005533;71;32876;-70
2022/06/11 07:17:24;;;;;;;65.80;61.10;;;;;;;16.58;100.00;102218.20;2005511;71;32814;-69
2022/06/11 07:23:12;;;;;;;64.27;59.33;;;;;;;16.66;100.00;102203.55;2016633;71;30971;-69
2022/06/11 07:29:01;;;;;;;62.27;57.87;;;;;;;16.85;100.00;102221.36;2000012;71;32850;-69
2022/06/11 07:34:49;;;;;;;62.40;57.33;;;;;;;17.98;100.00;102210.82;2016691;71;30869;-68
2022/06/11 07:40:34;;;;;;;59.33;53.73;;;;;;;18.84;100.00;102199.66;1991565;71;30863;-69
2022/06/11 07:46:18;;;;;;;47.50;44.20;;;;;;;19.37;100.00;102180.36;2016787;71;30888;-68
2022/06/11 07:52:02;;;;;;;52.67;48.33;;;;;;;19.22;100.00;102184.88;2018280;71;30922;-68
2022/06/11 07:57:46;;;;;;;52.27;48.57;;;;;;;18.22;100.00;102198.12;2005611;71;30872;-68
2022/06/11 08:03:37;;;;;;;50.47;46.63;;;;;;;18.18;100.00;102193.64;2014842;71;33319;-68
2022/06/11 08:09:24;;;;;;;47.60;44.03;;;;;;;18.30;100.00;102194.62;2003884;71;31440;-67
2022/06/11 08:15:11;;;;;;;46.37;43.03;;;;;;;18.95;100.00;102187.66;2013091;71;30911;-68
2022/06/11 08:20:56;;;;;;;45.70;42.30;;;;;;;19.10;100.00;102178.34;2014896;71;30903;-68
2022/06/11 08:26:40;;;;;;;43.03;40.03;;;;;;;18.99;100.00;102179.69;1991512;71;30835;-68
2022/06/11 08:32:26;;;;;;;41.17;38.27;;;;;;;18.98;100.00;102182.23;2006109;71;30943;-68
2022/06/11 08:38:10;;;;;;;41.13;38.37;;;;;;;19.12;100.00;102181.43;2002128;71;31042;-67
2022/06/11 08:44:02;;;;;;;38.60;35.97;;;;;;;19.45;100.00;102168.96;2016616;71;30895;-68
2022/06/11 08:49:49;;;;;;;40.93;38.47;;;;;;;20.21;100.00;102172.34;2016429;71;30924;-67
2022/06/11 08:55:38;;;;;;;33.30;31.10;;;;;;;20.48;100.00;102171.44;2018340;71;30972;-68
2022/06/11 09:01:31;;;;;;;28.10;26.13;;;;;;;20.86;100.00;102174.70;2016556;71;31464;-68
2022/06/11 09:04:12;;;;;;;26.73;24.80;;;;;;;20.95;100.00;102176.16;1969632;72;24602;-68
2022/06/11 09:06:59;;;;;;;23.97;22.23;;;;;;;21.15;100.00;102167.16;1971828;72;24563;-68
2022/06/11 09:09:36;;;;;;;23.40;21.70;;;;;;;20.96;100.00;102163.71;1976064;72;25230;-68
2022/06/11 09:12:18;;;;;;;24.73;22.90;;;;;;;21.22;100.00;102174.00;1967916;72;24155;-67
2022/06/11 09:18:43;;;;;;;25.57;23.50;;;;;;;21.01;100.00;102179.92;2009753;71;30947;-68
2022/06/11 09:21:20;;;;;;;26.17;24.07;;;;;;;20.75;100.00;102181.78;1962045;72;24340;-66
2022/06/11 09:27:21;;;;;;;26.60;24.70;;;;;;;20.48;100.00;102177.66;2016380;71;30890;-67
2022/06/11 09:29:56;;;;;;;23.07;21.27;;;;;;;20.45;100.00;102184.80;1979628;72;24155;-68
2022/06/11 09:32:29;;;;;;;23.13;21.47;;;;;;;20.50;100.00;102189.45;1964527;72;26657;-67
2022/06/11 09:35:03;;;;;;;22.47;20.67;;;;;;;20.59;100.00;102193.19;1984424;72;24157;-67
2022/06/11 09:37:37;;;;;;;21.97;20.20;;;;;;;20.56;100.00;102191.00;1962165;72;24755;-68
2022/06/11 09:40:11;;;;;;;19.80;18.23;;;;;;;20.45;100.00;102191.85;1974721;72;24158;-68
2022/06/11 09:46:09;;;;;;;19.50;18.00;;;;;;;20.43;100.00;102187.92;2016551;71;31451;-68
2022/06/11 09:52:11;;;;;;;20.23;18.53;;;;;;;20.49;100.00;102181.59;2011521;71;30965;-68
2022/06/11 09:54:55;;;;;;;23.00;19.70;;;;;;;20.74;100.00;102192.23;1958428;72;24152;-68
2022/06/11 10:00:57;;;;;;;20.27;17.67;;;;;;;20.76;100.00;102173.55;2012975;71;30976;-67
2022/06/11 10:06:49;;;;;;;16.23;14.73;;;;;;;20.97;100.00;102182.31;1995181;71;30886;-68
2022/06/11 10:12:38;;;;;;;18.07;16.15;;;;;;;20.86;100.00;102177.52;2012830;71;30962;-68
2022/06/11 10:18:29;;;;;;;15.93;14.30;;;;;;;21.09;100.00;102175.51;2016632;71;31499;-68
2022/06/11 10:24:17;;;;;;;14.23;12.93;;;;;;;21.23;100.00;102171.44;1999977;71;31395;-68
2022/06/11 10:30:10;;;;;;;16.97;13.00;;;;;;;21.48;100.00;102171.29;2016585;71;33359;-69
2022/06/11 10:32:43;;;;;;;14.53;13.23;;;;;;;21.25;100.00;102176.78;1980562;72;24154;-68
2022/06/11 10:35:19;;;;;;;13.63;12.23;;;;;;;21.21;100.00;102187.06;1963018;72;24120;-67
2022/06/11 10:37:54;;;;;;;13.57;12.30;;;;;;;21.35;100.00;102178.72;1974133;72;24717;-68
2022/06/11 10:40:29;;;;;;;12.60;11.50;;;;;;;21.39;100.00;102178.09;1958967;72;26753;-67
2022/06/11 10:46:14;;;;;;;12.07;11.00;;;;;;;21.24;100.00;102151.08;1991369;71;30919;-68
2022/06/11 10:52:02;;;;;;;12.37;11.23;;;;;;;21.59;100.00;102140.73;2002243;71;30898;-68
2022/06/11 10:57:50;;;;;;;11.47;10.53;;;;;;;21.60;100.00;102151.73;2016658;70;31435;-68
2022/06/11 11:03:39;;;;;;;11.13;10.17;;;;;;;21.67;100.00;102144.16;2016912;71;30978;-68
2022/06/11 11:09:28;;;;;;;10.57;9.67;;;;;;;21.66;100.00;102144.73;2011430;71;31531;-67
2022/06/11 11:15:18;;;;;;;10.60;9.60;;;;;;;21.53;100.00;102144.28;2016716;71;30861;-68
2022/06/11 11:21:04;;;;;;;9.53;8.77;;;;;;;21.93;100.00;102132.34;2014936;71;30885;-69
2022/06/11 11:26:54;;;;;;;10.60;9.33;;;;;;;21.79;100.00;102133.03;2011527;70;30921;-69
2022/06/11 11:32:42;;;;;;;11.88;10.38;;;;;;;21.84;100.00;102132.88;2005765;71;30921;-68
2022/06/11 11:38:32;;;;;;;11.53;9.60;;;;;;;22.14;100.00;102122.62;2003778;71;30895;-68
2022/06/11 11:44:20;;;;;;;11.07;10.03;;;;;;;21.80;100.00;102128.47;1995176;71;30833;-68
2022/06/11 11:50:11;;;;;;;10.25;9.53;;;;;;;21.93;100.00;102128.68;2007311;71;31065;-69
2022/06/11 11:55:58;;;;;;;9.88;8.93;;;;;;;22.00;100.00;102115.70;2014990;70;30900;-69
2022/06/11 12:01:47;;;;;;;13.60;9.50;;;;;;;22.03;100.00;102120.72;2014847;71;30893;-67
2022/06/11 12:07:37;;;;;;;9.50;9.03;;;;;;;22.23;100.00;102106.47;2007832;71;30918;-68
2022/06/11 12:13:32;;;;;;;12.43;9.43;;;;;;;22.10;100.00;102116.80;2008045;71;31412;-68
2022/06/11 12:19:21;;;;;;;10.10;9.05;;;;;;;21.95;100.00;102113.03;2014989;70;31506;-69
2022/06/11 12:21:54;;;;;;;10.48;9.70;;;;;;;21.88;100.00;102117.48;1978325;72;24586;-67
2022/06/11 12:24:28;;;;;;;9.98;9.08;;;;;;;21.84;100.00;102108.00;1976498;72;24243;-67
2022/06/11 12:27:02;;;;;;;9.85;8.98;;;;;;;21.86;100.00;102098.61;1984422;72;24228;-67
2022/06/11 12:32:48;;;;;;;9.73;9.03;;;;;;;21.99;100.00;102100.48;1991268;71;30865;-69
2022/06/11 12:38:41;;;;;;;11.05;9.90;;;;;;;22.26;100.00;102101.55;2014663;71;30932;-69
2022/06/11 12:44:51;;;;;;;15.70;14.50;;;;;;;22.34;100.00;102105.53;2007351;71;31517;-69
2022/06/11 12:47:32;;;;;;;11.43;10.30;;;;;;;22.55;100.00;102101.67;1984327;72;24223;-69
2022/06/11 12:50:06;;;;;;;11.63;10.32;;;;;;;22.63;100.00;102101.44;1959461;72;24253;-67
2022/06/11 12:52:45;;;;;;;10.75;9.73;;;;;;;22.81;100.00;102099.39;1981053;72;24150;-67
2022/06/11 12:59:05;;;;;;;10.70;9.78;;;;;;;22.40;100.00;102088.63;2007418;71;30905;-67
2022/06/11 13:01:40;;;;;;;10.15;9.45;;;;;;;22.22;100.00;102094.31;1978831;72;24160;-67
2022/06/11 13:04:22;;;;;;;11.00;10.23;;;;;;;22.31;100.00;102096.30;1984371;72;24594;-67
2022/06/11 13:10:24;;;;;;;11.05;10.13;;;;;;;22.81;100.00;102083.81;2016692;70;31002;-67
2022/06/11 13:16:22;;;;;;;11.12;10.20;;;;;;;22.98;100.00;102095.08;2000041;71;30941;-67
2022/06/11 13:19:09;;;;;;;10.72;9.88;;;;;;;23.24;100.00;102095.80;1967511;72;24245;-67
2022/06/11 13:21:43;;;;;;;9.75;9.13;;;;;;;23.28;100.00;102097.36;1966720;72;24678;-67
2022/06/11 13:24:17;;;;;;;10.60;9.70;;;;;;;22.79;100.00;102098.91;1974931;72;24147;-67
2022/06/11 13:26:53;;;;;;;10.75;9.83;;;;;;;22.59;100.00;102096.19;1971472;72;24723;-67
2022/06/11 13:33:08;;;;;;;10.53;9.80;;;;;;;22.95;100.00;102094.34;2014853;71;30923;-69
2022/06/11 13:35:46;;;;;;;10.10;9.45;;;;;;;22.94;100.00;102094.09;1977119;72;24161;-69
2022/06/11 13:38:26;;;;;;;10.80;10.00;;;;;;;22.80;100.00;102087.84;1977986;72;24463;-69
2022/06/11 13:41:03;;;;;;;11.20;10.30;;;;;;;22.81;100.00;102089.47;1971469;72;24605;-69
2022/06/11 13:46:57;;;;;;;11.03;10.13;;;;;;;22.77;100.00;102083.66;2004128;71;30975;-69
2022/06/11 13:49:45;;;;;;;11.00;10.00;;;;;;;22.50;100.00;102088.30;1985973;72;24169;-68
2022/06/11 13:55:33;;;;;;;10.40;9.55;;;;;;;23.08;100.00;102085.63;2012924;71;30973;-68
2022/06/11 14:01:36;;;;;;;9.25;8.55;;;;;;;23.03;100.00;102077.89;1995229;71;30812;-69
2022/06/11 14:07:47;;;;;;;11.50;10.43;;;;;;;22.65;100.00;102082.08;1990758;71;30857;-69
2022/06/11 14:13:56;;;;;;;31.25;13.32;;;;;;;23.05;100.00;102086.33;2006185;71;30860;-68
2022/06/11 14:20:22;;;;;;;10.43;9.50;;;;;;;23.24;100.00;102081.63;2011105;71;30944;-69
2022/06/11 14:26:19;;;;;;;10.60;9.60;;;;;;;22.96;100.00;102087.52;2009265;71;30963;-69
2022/06/11 14:32:29;;;;;;;11.88;10.90;;;;;;;22.62;100.00;102075.10;1996797;71;30954;-69
2022/06/11 14:35:34;;;;;;;11.30;10.50;;;;;;;22.66;100.00;102080.34;1982164;72;24231;-68
2022/06/11 14:41:53;;;;;;;10.98;10.08;;;;;;;22.74;100.00;102075.01;2002001;71;31019;-68
2022/06/11 14:47:58;;;;;;;14.93;13.88;;;;;;;22.82;100.00;102067.89;2005718;71;31027;-68
2022/06/11 14:57:40;;;;;;;10.58;9.88;;;;;;;23.07;100.00;102080.30;2000195;71;30956;-68
2022/06/11 15:11:21;;;;;;;11.43;10.50;;;;;;;22.33;100.00;102073.58;2011524;71;30936;-68
2022/06/11 15:14:24;;;;;;;11.85;10.85;;;;;;;22.28;100.00;102082.83;1972992;72;24224;-69
2022/06/11 15:16:58;;;;;;;12.25;11.10;;;;;;;22.44;100.00;102076.88;1971143;72;24247;-68
2022/06/11 15:19:31;;;;;;;12.58;11.35;;;;;;;22.52;100.00;102073.20;1970419;72;24152;-68
2022/06/11 15:22:05;;;;;;;11.65;10.72;;;;;;;22.39;100.00;102074.22;1975832;72;24244;-68
2022/06/11 15:24:40;;;;;;;11.75;10.78;;;;;;;22.27;100.00;102076.91;1978355;72;24221;-69
2022/06/11 15:30:28;;;;;;;12.23;11.07;;;;;;;22.16;100.00;102072.19;2003976;71;31457;-68
2022/06/11 15:36:27;;;;;;;11.63;10.55;;;;;;;22.26;100.00;102080.31;2013026;71;30961;-66
2022/06/11 15:42:17;;;;;;;10.82;10.10;;;;;;;22.73;100.00;102058.59;2009220;71;30938;-69
2022/06/11 15:48:05;;;;;;;12.13;10.90;;;;;;;22.97;100.00;102060.27;2015027;71;30930;-68
2022/06/11 16:00:37;;;;;;;12.07;10.18;;;;;;;22.26;100.00;102076.07;2005619;71;31501;-68
2022/06/11 16:06:33;;;;;;;12.23;10.95;;;;;;;22.33;100.00;102080.66;2011244;71;30884;-68
2022/06/11 16:12:22;;;;;;;11.33;10.32;;;;;;;22.43;100.00;102081.70;2005638;71;30899;-68
2022/06/11 16:18:17;;;;;;;11.43;10.43;;;;;;;22.54;100.00;102096.36;2004003;71;30924;-69
2022/06/11 16:20:51;;;;;;;11.28;10.18;;;;;;;22.42;100.00;102088.53;1968498;72;24152;-68
2022/06/11 16:23:23;;;;;;;10.80;9.83;;;;;;;22.59;100.00;102089.91;1983472;72;24718;-68
2022/06/11 16:29:21;;;;;;;10.90;10.00;;;;;;;22.39;100.00;102075.64;2016546;71;30993;-67
2022/06/11 16:35:12;;;;;;;11.73;10.85;;;;;;;22.44;100.00;102076.30;1994727;71;31027;-68
2022/06/11 16:41:02;;;;;;;11.48;10.68;;;;;;;22.48;100.00;102075.88;2016337;71;30919;-68
2022/06/11 16:46:50;;;;;;;10.17;9.53;;;;;;;22.10;100.00;102080.58;2007806;71;30819;-68
2022/06/11 16:58:43;;;;;;;11.95;10.75;;;;;;;22.32;100.00;102080.98;2017057;71;30947;-68
2022/06/11 17:04:31;;;;;;;11.57;10.60;;;;;;;21.87;100.00;102092.60;1956142;70;31676;-72
2022/06/11 17:10:33;;;;;;;10.90;10.00;;;;;;;21.85;100.00;102094.11;2005703;71;30922;-71
2022/06/11 17:16:23;;;;;;;11.10;10.10;;;;;;;21.77;100.00;102098.03;2012986;71;31074;-71
2022/06/11 17:22:13;;;;;;;11.35;10.40;;;;;;;21.81;100.00;102119.41;2011252;71;31446;-70
2022/06/11 17:27:59;;;;;;;12.23;11.12;;;;;;;21.79;100.00;102116.06;1995115;71;30869;-71
2022/06/11 17:33:43;;;;;;;12.13;10.90;;;;;;;21.83;100.00;102127.55;2014787;71;30918;-71
2022/06/11 17:39:32;;;;;;;11.90;10.70;;;;;;;21.72;100.00;102128.45;2011173;71;31012;-71
2022/06/11 17:45:19;;;;;;;12.23;10.40;;;;;;;21.56;100.00;102129.52;1991442;71;31054;-71
2022/06/11 17:51:04;;;;;;;11.12;10.23;;;;;;;21.88;100.00;102121.73;2009437;71;31515;-71
2022/06/11 17:56:49;;;;;;;11.83;10.60;;;;;;;21.97;100.00;102110.71;2018515;71;31447;-71
2022/06/11 18:02:36;;;;;;;11.40;10.48;;;;;;;21.72;100.00;102122.22;2000221;71;30912;-70
2022/06/11 18:08:22;;;;;;;11.07;10.00;;;;;;;21.47;100.00;102113.67;2014807;70;31046;-71
2022/06/11 18:14:07;;;;;;;11.53;10.63;;;;;;;21.33;100.00;102120.86;2008082;71;30919;-70
2022/06/11 18:19:52;;;;;;;11.97;10.70;;;;;;;21.25;100.00;102121.66;2007397;71;30955;-71
2022/06/11 18:25:37;;;;;;;11.37;10.17;;;;;;;21.39;100.00;102120.14;2016648;71;31031;-71
2022/06/11 18:31:23;;;;;;;11.17;10.20;;;;;;;21.11;100.00;102132.20;2009437;71;31384;-71
2022/06/11 18:37:07;;;;;;;11.60;10.60;;;;;;;21.02;100.00;102129.91;2009755;71;30846;-70
2022/06/11 18:42:52;;;;;;;10.93;9.93;;;;;;;21.00;100.00;102130.25;2012891;71;30906;-71
2022/06/11 18:48:36;;;;;;;11.60;10.50;;;;;;;21.17;100.00;102136.02;2009339;71;31502;-71
2022/06/11 18:54:21;;;;;;;11.17;10.50;;;;;;;21.33;100.00;102137.24;2008110;71;30959;-71
2022/06/11 19:00:09;;;;;;;10.03;9.23;;;;;;;21.04;100.00;102144.56;2016665;71;30910;-71
2022/06/11 19:05:53;;;;;;;11.23;10.20;;;;;;;20.81;100.00;102145.17;2014888;71;30944;-71
2022/06/11 19:11:46;;;;;;;11.47;10.50;;;;;;;20.73;100.00;102156.67;1998308;71;31002;-71
2022/06/11 19:17:30;;;;;;;11.13;10.23;;;;;;;20.69;100.00;102155.66;2014646;71;30989;-71
2022/06/11 19:23:14;;;;;;;9.30;8.70;;;;;;;20.57;100.00;102153.99;2006280;70;30931;-72
2022/06/11 19:29:01;;;;;;;9.83;9.23;;;;;;;20.37;100.00;102174.23;2015141;71;33381;-71
2022/06/11 19:34:49;;;;;;;9.73;8.83;;;;;;;20.20;100.00;102172.64;2000647;70;30962;-70
2022/06/11 19:40:38;;;;;;;9.77;8.97;;;;;;;20.08;100.00;102173.20;2014969;71;30928;-70
2022/06/11 19:46:23;;;;;;;9.77;9.10;;;;;;;19.88;100.00;102184.95;1998703;71;31416;-71
2022/06/11 19:52:08;;;;;;;10.10;9.50;;;;;;;19.85;100.00;102189.83;2015185;71;30959;-71
2022/06/11 19:57:53;;;;;;;9.23;8.70;;;;;;;19.68;100.00;102199.50;2007800;71;30934;-71
2022/06/11 20:03:39;;;;;;;9.37;8.77;;;;;;;19.49;100.00;102208.05;2005685;71;31370;-71
2022/06/11 20:09:24;;;;;;;9.97;9.10;;;;;;;19.45;100.00;102205.59;2016665;71;31361;-71
2022/06/11 20:15:12;;;;;;;10.27;9.23;;;;;;;19.30;100.00;102212.89;2011576;71;30912;-71
2022/06/11 20:20:56;;;;;;;9.90;9.13;;;;;;;19.10;100.00;102219.76;1996922;71;30910;-71
2022/06/11 20:26:42;;;;;;;10.30;9.40;;;;;;;19.03;100.00;102228.62;1995180;71;30927;-71
2022/06/11 20:32:26;;;;;;;10.57;9.77;;;;;;;18.88;100.00;102242.95;2009859;71;33272;-71
2022/06/11 20:38:14;;;;;;;10.67;10.07;;;;;;;18.67;100.00;102245.84;2007472;71;30997;-71
2022/06/11 20:44:00;;;;;;;11.17;10.07;;;;;;;18.49;100.00;102257.91;2009210;71;30974;-73
2022/06/11 20:49:45;;;;;;;10.43;9.53;;;;;;;18.33;100.00;102260.11;2010977;71;31008;-71
2022/06/11 20:55:30;;;;;;;10.80;9.90;;;;;;;18.24;100.00;102261.09;2007926;71;30871;-71
2022/06/11 21:01:14;;;;;;;10.23;9.47;;;;;;;18.22;100.00;102266.20;2002455;71;30826;-70
2022/06/11 21:13:05;;;;;;;11.50;10.50;;;;;;;18.04;100.00;102272.05;2007690;71;33338;-70
2022/06/11 21:18:50;;;;;;;11.00;10.20;;;;;;;18.04;100.00;102266.44;2010016;71;33347;-70
2022/06/11 21:24:38;;;;;;;11.57;10.47;;;;;;;17.92;100.00;102269.68;2006016;71;30911;-70
2022/06/11 21:30:23;;;;;;;11.13;10.30;;;;;;;17.78;100.00;102280.53;2003614;71;30906;-71
2022/06/11 21:36:09;;;;;;;11.40;10.40;;;;;;;17.77;100.00;102285.31;2011516;71;32990;-70
2022/06/11 21:41:54;;;;;;;10.93;10.00;;;;;;;17.69;100.00;102292.43;2013155;71;31368;-71
2022/06/11 21:47:40;;;;;;;11.17;10.23;;;;;;;17.51;100.00;102290.34;1995109;71;32822;-71
2022/06/11 21:53:35;;;;;;;11.63;10.47;;;;;;;17.45;100.00;102292.11;2006211;71;33324;-72
2022/06/11 21:59:21;;;;;;;11.97;11.00;;;;;;;17.38;100.00;102296.66;2012991;71;32973;-70
2022/06/11 22:05:07;;;;;;;12.27;11.17;;;;;;;17.24;100.00;102309.73;1991330;71;32792;-71
2022/06/11 22:10:51;;;;;;;12.07;10.93;;;;;;;17.12;100.00;102326.94;2007446;71;33422;-71
2022/06/11 22:16:37;;;;;;;11.50;10.60;;;;;;;17.18;100.00;102327.75;1991654;71;33217;-70
2022/06/11 22:22:26;;;;;;;11.90;10.93;;;;;;;16.87;100.00;102343.98;2014821;71;32964;-71
2022/06/11 22:28:12;;;;;;;11.67;10.63;;;;;;;16.86;100.00;102341.48;2015122;71;32872;-71
2022/06/11 22:33:57;;;;;;;11.60;10.67;;;;;;;16.71;100.00;102345.22;2011178;71;32944;-72
2022/06/11 22:39:41;;;;;;;11.90;10.87;;;;;;;16.62;100.00;102353.41;2014802;71;30946;-72
2022/06/11 22:45:29;;;;;;;12.57;11.27;;;;;;;16.65;100.00;102362.64;2013675;71;33294;-72
2022/06/11 22:51:20;;;;;;;12.30;11.40;;;;;;;16.44;100.00;102368.61;2005626;71;32826;-71
2022/06/11 22:57:05;;;;;;;13.07;11.93;;;;;;;16.47;100.00;102368.91;2016836;71;33042;-71
2022/06/11 23:02:49;;;;;;;13.67;12.57;;;;;;;16.28;100.00;102377.11;2011241;71;30959;-71
2022/06/11 23:08:34;;;;;;;14.07;12.97;;;;;;;16.32;100.00;102372.59;1994781;70;33343;-71
2022/06/11 23:14:18;;;;;;;16.43;14.93;;;;;;;16.18;100.00;102377.12;2003913;71;33332;-71
2022/06/11 23:20:05;;;;;;;17.60;16.43;;;;;;;16.03;100.00;102383.36;1997020;71;32777;-70
2022/06/11 23:25:59;;;;;;;17.83;16.50;;;;;;;16.10;100.00;102388.94;2014892;71;33014;-71
2022/06/11 23:31:43;;;;;;;19.93;18.47;;;;;;;15.93;100.00;102380.86;2008042;71;33382;-71
2022/06/11 23:37:27;;;;;;;21.03;19.60;;;;;;;15.88;100.00;102380.86;1995027;71;32912;-70
2022/06/11 23:43:13;;;;;;;25.03;23.20;;;;;;;15.82;100.00;102375.57;2000645;71;32819;-72
2022/06/11 23:48:58;;;;;;;28.03;25.80;;;;;;;15.72;100.00;102376.42;2013231;71;33351;-72
2022/06/11 23:54:44;;;;;;;31.47;29.37;;;;;;;15.67;100.00;102372.78;2011081;71;33022;-72
